This is the latest recevied weather packets stored in our database for station/object KF7SOJ. If no packets are shown the sender has not sent any weather packets the latest 10 day(s).
| Time | Temp. | Humidity | Pressure | Rain* | Wind** | Luminosity | Snow |
|---|---|---|---|---|---|---|---|
| 1777491162 | 12.22° C | 38% | 936.6 hPa | 0 mm | - | 690 W/m² | - |
| 1777490857 | 12.78° C | 36% | 936.7 hPa | 0 mm | - | 182 W/m² | - |
| 1777490553 | 13.33° C | 35% | 936.7 hPa | 0 mm | - | 283 W/m² | - |
| 1777490250 | 13.33° C | 35% | 936.6 hPa | 0 mm | - | 569 W/m² | - |
| 1777489948 | 13.89° C | 36% | 936.7 hPa | 0 mm | - | 1023 W/m² | - |
| 1777489646 | 13.33° C | 35% | 936.5 hPa | 0 mm | - | 1008 W/m² | - |
| 1777489341 | 13.33° C | 36% | 936.6 hPa | 0 mm | - | 1018 W/m² | - |
| 1777489039 | 12.78° C | 36% | 936.7 hPa | 0 mm | - | 369 W/m² | - |
| 1777488735 | 12.78° C | 37% | 936.8 hPa | 0 mm | - | 965 W/m² | - |
| 1777488433 | 13.33° C | 38% | 936.8 hPa | 0 mm | - | 990 W/m² | - |
| 1777488131 | 13.33° C | 34% | 936.9 hPa | 0 mm | - | 1005 W/m² | - |
| 1777487829 | 12.78° C | 40% | 936.8 hPa | 0 mm | - | 1094 W/m² | - |
| 1777487526 | 12.22° C | 38% | 936.9 hPa | 0 mm | - | 1053 W/m² | - |
| 1777487224 | 12.22° C | 39% | 936.9 hPa | 0 mm | - | 674 W/m² | - |
| 1777486919 | 12.78° C | 38% | 936.7 hPa | 0 mm | - | 247 W/m² | - |
| 1777486616 | 13.33° C | 35% | 936.8 hPa | 0 mm | - | 570 W/m² | - |
| 1777486314 | 12.22° C | 41% | 937 hPa | 0 mm | - | 1178 W/m² | - |
| 1777486011 | 12.22° C | 40% | 936.9 hPa | 0 mm | - | 298 W/m² | - |
| 1777485708 | 12.78° C | 39% | 937 hPa | 0 mm | - | 249 W/m² | - |
| 1777485403 | 12.78° C | 38% | 936.8 hPa | 0 mm | - | 338 W/m² | - |
| 1777485099 | 12.78° C | 39% | 936.8 hPa | 0 mm | - | 1195 W/m² | - |
| 1777484797 | 12.78° C | 40% | 937 hPa | 0 mm | - | 673 W/m² | - |
| 1777484492 | 11.67° C | 42% | 937 hPa | 0 mm | - | 938 W/m² | - |
| 1777484190 | 12.78° C | 38% | 937.1 hPa | 0 mm | - | 211 W/m² | - |
| 1777483886 | 12.78° C | 40% | 936.9 hPa | 0 mm | - | 995 W/m² | - |
* Rain latest hour (hover to see other rain measurements)
** Current wind speed in m/s (hover to see current wind gust speed)